Time;durP1;ratioP1;P1;durP2;ratioP2;P2;SDS_P1;SDS_P2;PMS_P1;PMS_P2;Temp;Humidity;BMP_temperature;BMP_pressure;BME280_temperature;BME280_humidity;BME280_pressure;Samples;Min_cycle;Max_cycle;Signal;HPM_P1;HPM_P2
2023/04/13 00:02:14;;;;;;;2.60;0.75;;;7.20;90.30;;;;;;6145951;22;87744;-73
2023/04/13 00:04:41;;;;;;;6.28;0.73;;;7.30;90.10;;;;;;6154759;22;87913;-75
2023/04/13 00:07:13;;;;;;;4.25;0.90;;;7.30;90.40;;;;;;6179777;22;90188;-76
2023/04/13 00:09:39;;;;;;;3.20;0.80;;;7.30;90.30;;;;;;6178998;22;88171;-77
2023/04/13 00:12:05;;;;;;;3.45;0.93;;;7.20;90.20;;;;;;6178665;22;90078;-77
2023/04/13 00:14:33;;;;;;;5.60;1.27;;;7.30;90.70;;;;;;6204841;22;88259;-76
2023/04/13 00:16:59;;;;;;;4.05;0.60;;;7.30;90.40;;;;;;6205239;22;87957;-78
2023/04/13 00:19:25;;;;;;;6.20;0.73;;;7.20;90.40;;;;;;6177930;22;87425;-76
2023/04/13 00:21:52;;;;;;;3.70;0.80;;;7.20;90.80;;;;;;6178834;22;89998;-75
2023/04/13 00:24:18;;;;;;;2.85;0.68;;;7.20;91.00;;;;;;6204963;22;88224;-77
2023/04/13 00:26:45;;;;;;;5.85;0.80;;;7.20;91.20;;;;;;6204762;22;87901;-77
2023/04/13 00:29:10;;;;;;;6.50;0.85;;;7.10;91.40;;;;;;6140209;22;87675;-76
2023/04/13 00:31:36;;;;;;;3.28;1.00;;;7.10;91.80;;;;;;6116147;22;90661;-74
2023/04/13 00:34:03;;;;;;;6.32;0.80;;;7.10;91.90;;;;;;6141561;22;89148;-78
2023/04/13 00:36:28;;;;;;;2.92;0.80;;;7.00;92.00;;;;;;6080530;23;94548;-78
2023/04/13 00:38:56;;;;;;;6.20;0.80;;;7.00;91.90;;;;;;6080439;23;88338;-75
2023/04/13 00:41:23;;;;;;;8.45;0.90;;;7.10;91.70;;;;;;6081105;23;87627;-74
2023/04/13 00:43:51;;;;;;;4.90;0.93;;;7.10;91.60;;;;;;6081357;23;88815;-78
2023/04/13 00:46:17;;;;;;;4.00;0.93;;;7.10;91.60;;;;;;6080768;23;88418;-75
2023/04/13 00:48:47;;;;;;;3.65;1.00;;;7.20;91.30;;;;;;6081932;23;87615;-79
2023/04/13 00:51:14;;;;;;;4.60;0.80;;;7.20;91.10;;;;;;6081351;23;90397;-79
2023/04/13 00:53:41;;;;;;;6.97;0.80;;;7.30;91.30;;;;;;6081068;23;87986;-72
2023/04/13 00:56:08;;;;;;;2.60;0.60;;;7.30;91.50;;;;;;6082875;23;88234;-77
2023/04/13 00:58:34;;;;;;;4.28;1.00;;;7.20;91.40;;;;;;6082361;23;87404;-80
2023/04/13 01:01:01;;;;;;;5.07;0.88;;;7.30;91.40;;;;;;6130618;22;88045;-77
2023/04/13 01:03:27;;;;;;;8.27;1.23;;;7.30;91.40;;;;;;6140064;22;93151;-76
2023/04/13 01:06:08;;;;;;;6.18;0.98;;;7.30;91.60;;;;;;6140740;22;89264;-75
2023/04/13 01:09:08;;;;;;;5.35;0.90;;;7.30;91.10;;;;;;6172158;22;87505;-74
2023/04/13 01:11:42;;;;;;;8.27;1.98;;;7.40;91.30;;;;;;6173171;22;94853;-76
2023/04/13 01:14:48;;;;;;;9.23;0.95;;;7.40;91.10;;;;;;6173307;22;91119;-75
2023/04/13 01:17:20;;;;;;;6.80;1.42;;;7.40;91.00;;;;;;6080135;23;87755;-77
2023/04/13 01:20:00;;;;;;;4.68;0.68;;;7.40;91.10;;;;;;6056991;23;87690;-78
2023/04/13 01:22:29;;;;;;;8.48;1.25;;;7.40;91.20;;;;;;6056796;23;89499;-82
2023/04/13 01:25:21;;;;;;;6.78;1.27;;;7.40;91.30;;;;;;6058715;23;91596;-77
2023/04/13 01:27:56;;;;;;;6.28;1.42;;;7.40;91.60;;;;;;6057537;23;96118;-77
2023/04/13 01:30:25;;;;;;;5.78;1.02;;;7.40;91.50;;;;;;6081070;23;88347;-81
2023/04/13 01:32:51;;;;;;;6.63;1.05;;;7.40;91.10;;;;;;6082261;23;87633;-76
2023/04/13 01:35:19;;;;;;;16.38;2.38;;;7.40;91.40;;;;;;6081090;23;92091;-77
2023/04/13 01:37:51;;;;;;;7.47;1.10;;;7.50;91.40;;;;;;6056533;23;91755;-77
2023/04/13 01:40:18;;;;;;;8.57;1.55;;;7.50;91.00;;;;;;6080802;23;87471;-76
2023/04/13 01:42:44;;;;;;;7.00;0.80;;;7.50;91.00;;;;;;6082260;23;90470;-77
2023/04/13 01:45:54;;;;;;;13.27;2.00;;;7.50;90.90;;;;;;6080963;23;91809;-80
2023/04/13 01:48:37;;;;;;;4.50;0.98;;;7.50;90.70;;;;;;6081540;23;87903;-78
2023/04/13 01:51:12;;;;;;;18.38;1.50;;;7.60;90.60;;;;;;6080604;23;87770;-74
2023/04/13 01:53:45;;;;;;;6.32;1.33;;;7.60;90.50;;;;;;6116747;22;89242;-77
2023/04/13 01:56:14;;;;;;;7.17;0.80;;;7.60;90.50;;;;;;6171751;22;92454;-74
2023/04/13 01:58:41;;;;;;;7.45;1.10;;;7.60;90.50;;;;;;6175337;22;89148;-78
2023/04/13 02:01:08;;;;;;;4.03;0.65;;;7.60;90.50;;;;;;6174691;22;87424;-79
2023/04/13 02:03:34;;;;;;;5.35;0.70;;;7.60;90.30;;;;;;6172444;22;90226;-75
2023/04/13 02:06:04;;;;;;;4.85;0.77;;;7.60;90.40;;;;;;6195913;22;88231;-75
2023/04/13 02:08:33;;;;;;;7.20;0.90;;;7.60;90.50;;;;;;6178994;22;93346;-75
2023/04/13 02:11:00;;;;;;;4.63;0.80;;;7.60;90.80;;;;;;6178955;22;87655;-75
2023/04/13 02:13:26;;;;;;;4.88;0.70;;;7.50;91.10;;;;;;6179662;22;89026;-74
2023/04/13 02:15:52;;;;;;;7.82;1.00;;;7.50;91.20;;;;;;6179556;22;91133;-75
2023/04/13 02:18:17;;;;;;;5.60;0.90;;;7.50;91.30;;;;;;6178801;22;90726;-72
2023/04/13 02:20:43;;;;;;;7.75;0.88;;;7.50;91.20;;;;;;6178685;22;88772;-77
2023/04/13 02:23:16;;;;;;;8.27;1.58;;;7.50;91.00;;;;;;6178610;22;90176;-78
2023/04/13 02:25:42;;;;;;;7.25;0.82;;;7.50;91.40;;;;;;6206003;22;88035;-77
2023/04/13 02:28:08;;;;;;;7.28;1.42;;;7.50;91.20;;;;;;6206384;22;88181;-72
2023/04/13 02:30:34;;;;;;;8.27;2.05;;;7.50;91.40;;;;;;6206316;22;87255;-72
2023/04/13 02:33:00;;;;;;;4.13;1.10;;;7.40;91.70;;;;;;6178431;22;90506;-77
2023/04/13 02:35:26;;;;;;;5.43;1.70;;;7.50;91.80;;;;;;6178567;22;89308;-80
2023/04/13 02:37:54;;;;;;;6.40;1.23;;;7.40;92.00;;;;;;6206359;22;87686;-76
2023/04/13 02:40:20;;;;;;;6.93;0.98;;;7.30;92.40;;;;;;6205767;22;87635;-75
2023/04/13 02:42:47;;;;;;;10.05;0.95;;;7.30;92.50;;;;;;6207160;22;87732;-79
2023/04/13 02:45:16;;;;;;;7.68;1.05;;;7.20;92.90;;;;;;6205330;22;88235;-77
2023/04/13 02:47:42;;;;;;;6.05;1.10;;;7.20;93.00;;;;;;6178582;22;92359;-76
2023/04/13 02:50:08;;;;;;;9.77;0.82;;;7.10;93.30;;;;;;6179159;22;87663;-75
2023/04/13 02:52:34;;;;;;;10.82;1.42;;;7.10;93.80;;;;;;6177959;22;91498;-77
2023/04/13 02:55:00;;;;;;;5.43;1.10;;;7.10;94.00;;;;;;6180518;22;91433;-77
2023/04/13 02:57:25;;;;;;;8.32;1.42;;;7.00;94.20;;;;;;6178640;22;89842;-79
2023/04/13 02:59:52;;;;;;;11.32;1.83;;;7.00;94.00;;;;;;6179472;22;87565;-80
2023/04/13 03:02:18;;;;;;;12.50;1.90;;;7.00;94.50;;;;;;6205839;22;86831;-76
2023/04/13 03:04:44;;;;;;;11.77;1.23;;;7.10;94.30;;;;;;6205530;22;87538;-77
2023/04/13 03:07:13;;;;;;;5.88;1.08;;;7.10;94.30;;;;;;6179278;22;89336;-78
2023/04/13 03:09:39;;;;;;;3.85;1.05;;;7.10;94.30;;;;;;6205157;22;88108;-80
2023/04/13 03:12:08;;;;;;;6.85;1.00;;;7.10;94.30;;;;;;6178432;22;91098;-75
2023/04/13 03:14:35;;;;;;;3.60;0.70;;;7.10;94.20;;;;;;6177952;22;90948;-74
2023/04/13 03:17:02;;;;;;;7.43;0.60;;;7.10;93.70;;;;;;6204816;22;88356;-76
2023/04/13 03:19:28;;;;;;;7.28;0.52;;;7.00;94.00;;;;;;6178352;22;87778;-78
2023/04/13 03:21:54;;;;;;;4.50;0.73;;;7.00;93.10;;;;;;6206090;22;87057;-78
2023/04/13 03:24:20;;;;;;;2.47;0.50;;;6.90;92.90;;;;;;6178483;22;91115;-77
2023/04/13 03:26:46;;;;;;;2.35;0.50;;;7.00;93.40;;;;;;6178020;22;89279;-76
2023/04/13 03:29:12;;;;;;;3.88;1.10;;;6.90;93.80;;;;;;6140545;22;87401;-75
2023/04/13 03:31:37;;;;;;;3.40;0.50;;;6.90;94.00;;;;;;6081003;23;87696;-80
2023/04/13 03:34:03;;;;;;;4.75;0.70;;;6.90;93.90;;;;;;6082153;23;91358;-77
2023/04/13 03:36:30;;;;;;;4.55;0.60;;;6.90;94.10;;;;;;6081842;23;90701;-84
2023/04/13 03:38:56;;;;;;;2.67;0.50;;;6.90;94.00;;;;;;6081661;23;87771;-78
2023/04/13 03:41:22;;;;;;;3.80;0.40;;;6.80;93.50;;;;;;6080802;23;88634;-78
2023/04/13 03:43:48;;;;;;;3.13;0.47;;;6.80;93.20;;;;;;6081088;23;90958;-81
2023/04/13 03:46:14;;;;;;;0.82;0.30;;;6.70;93.20;;;;;;6082391;23;88356;-78
2023/04/13 03:48:40;;;;;;;1.85;0.40;;;6.70;93.00;;;;;;6082410;23;87309;-81
2023/04/13 03:51:06;;;;;;;1.40;0.28;;;6.60;92.80;;;;;;6057704;23;88839;-77
2023/04/13 03:53:35;;;;;;;1.60;0.30;;;6.50;92.90;;;;;;6021487;23;90235;-82
2023/04/13 03:56:01;;;;;;;1.73;0.63;;;6.50;92.90;;;;;;6022544;23;88061;-78
2023/04/13 03:58:27;;;;;;;1.55;0.40;;;6.40;92.90;;;;;;6022527;23;88466;-81
2023/04/13 04:00:52;;;;;;;2.95;0.40;;;6.40;93.00;;;;;;6023789;23;87719;-78
2023/04/13 04:03:18;;;;;;;2.47;0.50;;;6.30;93.10;;;;;;6022585;23;90628;-81
2023/04/13 04:05:44;;;;;;;0.70;0.30;;;6.30;93.30;;;;;;6024603;23;90880;-78
2023/04/13 04:08:10;;;;;;;2.53;0.32;;;6.30;93.20;;;;;;6032540;23;87957;-81
2023/04/13 04:10:36;;;;;;;4.40;0.43;;;6.20;93.30;;;;;;6110841;23;91071;-82
2023/04/13 04:13:01;;;;;;;0.90;0.30;;;6.20;93.50;;;;;;6051167;23;88708;-80
2023/04/13 04:15:27;;;;;;;1.10;0.40;;;6.10;93.60;;;;;;6027797;23;91242;-80
2023/04/13 04:17:53;;;;;;;2.88;0.38;;;6.10;93.70;;;;;;6027169;23;88119;-78
2023/04/13 04:20:19;;;;;;;1.08;0.40;;;6.10;93.70;;;;;;6021866;23;88588;-74
2023/04/13 04:22:46;;;;;;;3.70;0.50;;;6.10;93.70;;;;;;5997323;23;91831;-77
2023/04/13 04:25:20;;;;;;;5.45;0.60;;;6.10;93.80;;;;;;6021139;23;91586;-76
2023/04/13 04:27:50;;;;;;;6.93;0.50;;;6.10;93.90;;;;;;6028169;23;88717;-79
2023/04/13 04:30:20;;;;;;;4.63;0.85;;;6.10;93.90;;;;;;6051968;23;90580;-75
2023/04/13 04:32:46;;;;;;;6.40;0.50;;;6.10;93.90;;;;;;6028031;23;90869;-82
2023/04/13 04:35:13;;;;;;;2.55;0.50;;;6.10;93.90;;;;;;6027854;23;90666;-78
2023/04/13 04:37:39;;;;;;;3.72;0.55;;;6.10;94.00;;;;;;6052225;23;88006;-81
2023/04/13 04:40:09;;;;;;;3.15;0.60;;;6.10;94.10;;;;;;6033922;23;89936;-79
2023/04/13 04:42:36;;;;;;;2.35;0.50;;;6.00;94.10;;;;;;6082347;23;88975;-80
2023/04/13 04:45:06;;;;;;;4.30;0.70;;;6.00;94.20;;;;;;6074598;23;90849;-76
2023/04/13 04:47:36;;;;;;;5.45;0.80;;;6.00;94.20;;;;;;6051159;23;88635;-78
2023/04/13 04:50:02;;;;;;;7.10;1.02;;;6.10;94.20;;;;;;6027163;23;87686;-79
2023/04/13 04:52:31;;;;;;;5.22;1.02;;;6.10;94.10;;;;;;6025509;23;88820;-79
2023/04/13 04:54:57;;;;;;;7.18;1.20;;;6.10;94.10;;;;;;6028808;23;91134;-79
2023/04/13 04:57:23;;;;;;;5.35;1.10;;;6.10;94.20;;;;;;6052228;23;87554;-78
2023/04/13 04:59:48;;;;;;;5.95;0.80;;;6.00;94.20;;;;;;6027307;23;89759;-77
2023/04/13 05:02:15;;;;;;;10.90;1.50;;;6.00;94.30;;;;;;6027337;23;90689;-74
2023/04/13 05:04:40;;;;;;;5.25;0.85;;;6.00;94.30;;;;;;6027660;23;91198;-79
2023/04/13 05:07:06;;;;;;;5.57;1.13;;;6.10;94.40;;;;;;6028779;23;87555;-77
2023/04/13 05:09:33;;;;;;;10.15;1.23;;;6.10;94.50;;;;;;6027808;23;90129;-77
2023/04/13 05:11:58;;;;;;;8.40;1.02;;;6.10;94.70;;;;;;6047065;23;89512;-77
2023/04/13 05:14:24;;;;;;;4.88;0.93;;;6.10;94.50;;;;;;6026425;23;92102;-76
2023/04/13 05:16:50;;;;;;;6.10;0.80;;;6.20;94.30;;;;;;6074510;23;87584;-75
2023/04/13 05:19:15;;;;;;;3.88;1.20;;;6.20;94.20;;;;;;6106330;23;87526;-75
2023/04/13 05:21:41;;;;;;;8.95;0.88;;;6.20;94.10;;;;;;6081440;23;89465;-80
2023/04/13 05:24:07;;;;;;;7.10;0.88;;;6.30;94.10;;;;;;6053742;23;90272;-75
2023/04/13 05:26:33;;;;;;;3.20;0.60;;;6.30;94.10;;;;;;6081374;23;87939;-78
2023/04/13 05:28:59;;;;;;;7.82;1.13;;;6.30;94.10;;;;;;6072148;23;88914;-79
2023/04/13 05:31:24;;;;;;;4.28;1.13;;;6.30;94.20;;;;;;6081153;23;91631;-79
2023/04/13 05:33:50;;;;;;;7.15;1.42;;;6.40;94.20;;;;;;6081331;23;90681;-75
2023/04/13 05:36:16;;;;;;;11.45;1.35;;;6.50;94.20;;;;;;6080262;23;88535;-78
2023/04/13 05:38:42;;;;;;;8.15;2.10;;;6.50;94.40;;;;;;6080177;23;90803;-75
2023/04/13 05:41:09;;;;;;;19.58;2.10;;;6.50;94.10;;;;;;6081285;23;91206;-75
2023/04/13 05:43:35;;;;;;;12.52;2.00;;;6.60;94.20;;;;;;6051853;23;88377;-77
2023/04/13 05:46:01;;;;;;;15.55;2.13;;;6.60;93.90;;;;;;6030200;23;87808;-74
2023/04/13 05:48:26;;;;;;;11.32;1.58;;;6.70;93.90;;;;;;6023765;23;90539;-78
2023/04/13 05:50:59;;;;;;;35.85;4.38;;;6.80;93.80;;;;;;6023597;23;90958;-79
2023/04/13 05:53:25;;;;;;;18.25;3.35;;;6.80;93.80;;;;;;6015525;23;88465;-76
2023/04/13 05:55:51;;;;;;;7.88;1.30;;;6.90;93.70;;;;;;6024200;23;93466;-78
2023/04/13 05:58:17;;;;;;;10.93;3.20;;;7.00;93.20;;;;;;6024291;23;88249;-75
2023/04/13 06:00:43;;;;;;;7.53;1.75;;;7.10;93.30;;;;;;6028472;23;90674;-78
2023/04/13 06:03:09;;;;;;;10.63;1.30;;;7.20;93.00;;;;;;6023125;23;91121;-74
2023/04/13 06:05:37;;;;;;;9.93;1.90;;;7.20;92.80;;;;;;5998706;23;87714;-75
2023/04/13 06:08:03;;;;;;;8.50;1.60;;;7.20;92.90;;;;;;5998756;23;90615;-76
2023/04/13 06:10:29;;;;;;;10.20;1.13;;;7.30;92.60;;;;;;6023333;23;91454;-74
2023/04/13 06:12:55;;;;;;;7.93;0.90;;;7.30;92.80;;;;;;6023855;23;91589;-75
2023/04/13 06:15:20;;;;;;;8.32;1.20;;;7.40;92.70;;;;;;6070382;23;87649;-75
2023/04/13 06:17:49;;;;;;;6.38;1.23;;;7.40;92.60;;;;;;6058360;23;89514;-75
2023/04/13 06:20:15;;;;;;;10.02;1.42;;;7.50;92.40;;;;;;6058213;23;91040;-74
2023/04/13 06:22:40;;;;;;;6.13;1.67;;;7.60;92.50;;;;;;6057459;23;91702;-75
2023/04/13 06:25:07;;;;;;;8.85;1.63;;;7.70;92.60;;;;;;6128096;22;88959;-76
2023/04/13 06:27:33;;;;;;;12.65;1.40;;;7.80;92.30;;;;;;6140522;22;89351;-75
2023/04/13 06:30:00;;;;;;;11.05;2.08;;;7.90;92.80;;;;;;6128286;22;87892;-75
2023/04/13 06:32:25;;;;;;;12.85;3.22;;;8.00;92.00;;;;;;6117034;22;91230;-74
2023/04/13 06:34:51;;;;;;;11.35;2.30;;;8.00;91.90;;;;;;6145041;22;87425;-76
2023/04/13 06:37:18;;;;;;;13.05;2.30;;;8.10;91.80;;;;;;6143661;22;89442;-74
2023/04/13 06:39:44;;;;;;;11.13;1.95;;;8.10;92.30;;;;;;6143072;22;91814;-77
2023/04/13 06:42:09;;;;;;;12.82;1.80;;;8.20;91.60;;;;;;6144131;22;91087;-74
2023/04/13 06:44:35;;;;;;;14.70;2.40;;;8.30;91.10;;;;;;6141884;22;87493;-74
2023/04/13 06:47:01;;;;;;;11.07;2.25;;;8.30;91.30;;;;;;6139510;22;90161;-74
2023/04/13 06:49:27;;;;;;;18.33;2.05;;;8.40;91.20;;;;;;6141366;22;90025;-74
2023/04/13 06:51:52;;;;;;;10.90;1.80;;;8.40;90.90;;;;;;6140765;22;92056;-77
2023/04/13 06:54:19;;;;;;;18.52;2.28;;;8.50;90.80;;;;;;6142162;22;87024;-75
2023/04/13 06:56:45;;;;;;;19.35;2.22;;;8.60;90.60;;;;;;6140603;22;90967;-74
2023/04/13 06:59:11;;;;;;;14.60;2.22;;;8.60;90.20;;;;;;6142640;22;89749;-75
2023/04/13 07:01:37;;;;;;;11.98;3.00;;;8.70;90.20;;;;;;6138599;22;88113;-75
2023/04/13 07:04:05;;;;;;;13.77;2.60;;;8.70;90.00;;;;;;6141446;22;87883;-76
2023/04/13 07:06:31;;;;;;;12.38;2.22;;;8.80;89.60;;;;;;6199263;22;86797;-76
2023/04/13 07:08:56;;;;;;;19.40;3.35;;;8.80;89.70;;;;;;6202694;22;88507;-74
2023/04/13 07:11:25;;;;;;;19.02;3.50;;;8.90;90.00;;;;;;6204088;22;88066;-74
2023/04/13 07:13:50;;;;;;;15.57;3.88;;;8.90;89.00;;;;;;6204119;22;88577;-71
2023/04/13 07:16:16;;;;;;;18.92;3.50;;;9.00;88.90;;;;;;6175423;22;90087;-74
2023/04/13 07:18:42;;;;;;;21.98;3.38;;;9.00;89.10;;;;;;6176050;22;92355;-75
2023/04/13 07:21:08;;;;;;;18.33;3.35;;;9.00;88.10;;;;;;6176904;22;91768;-76
2023/04/13 07:23:33;;;;;;;18.00;2.80;;;9.00;88.20;;;;;;6203971;22;87482;-74
2023/04/13 07:26:00;;;;;;;21.67;3.05;;;9.00;87.80;;;;;;6177349;22;90333;-75
2023/04/13 07:28:26;;;;;;;22.75;3.85;;;9.00;88.60;;;;;;6174287;22;92680;-75
2023/04/13 07:30:51;;;;;;;18.55;3.30;;;9.00;88.60;;;;;;6177281;22;91077;-75
2023/04/13 07:33:17;;;;;;;23.13;3.63;;;9.10;88.00;;;;;;6205603;22;87151;-75
2023/04/13 07:35:43;;;;;;;15.77;3.25;;;9.20;87.60;;;;;;6179728;22;90983;-75
2023/04/13 07:38:08;;;;;;;21.23;3.30;;;9.30;86.20;;;;;;6178796;22;92672;-76
2023/04/13 07:40:34;;;;;;;19.33;3.10;;;9.30;85.50;;;;;;6205054;22;88882;-75
2023/04/13 07:43:00;;;;;;;25.48;3.70;;;9.40;84.90;;;;;;6177928;22;87506;-74
2023/04/13 07:45:30;;;;;;;15.93;3.88;;;9.50;84.10;;;;;;6179190;22;88352;-77
2023/04/13 07:47:59;;;;;;;18.33;2.83;;;9.50;84.60;;;;;;6178389;22;91513;-78
2023/04/13 07:50:25;;;;;;;16.80;2.45;;;9.50;82.90;;;;;;6179334;22;91474;-78
2023/04/13 07:52:51;;;;;;;19.27;2.50;;;9.60;82.70;;;;;;6206356;22;87445;-78
2023/04/13 07:55:17;;;;;;;27.05;4.82;;;9.60;82.30;;;;;;6178732;22;90272;-78
2023/04/13 07:57:42;;;;;;;15.77;2.08;;;9.60;82.30;;;;;;6178005;22;91032;-77
2023/04/13 08:00:11;;;;;;;16.10;2.13;;;9.70;82.30;;;;;;6177638;22;91173;-77
2023/04/13 08:02:37;;;;;;;19.58;3.05;;;9.80;80.20;;;;;;6049581;23;88827;-77
2023/04/13 08:05:03;;;;;;;13.10;2.85;;;9.70;79.00;;;;;;6051582;23;87205;-77
2023/04/13 08:07:29;;;;;;;13.20;2.85;;;9.80;79.60;;;;;;6052269;23;91713;-76
2023/04/13 08:09:55;;;;;;;13.20;2.15;;;9.70;79.90;;;;;;6021271;23;90275;-76
2023/04/13 08:12:21;;;;;;;15.68;2.40;;;9.70;80.40;;;;;;6022625;23;87131;-76
2023/04/13 08:14:47;;;;;;;15.98;2.25;;;9.80;79.90;;;;;;5998160;23;90554;-76
2023/04/13 08:17:13;;;;;;;10.63;1.83;;;9.80;78.80;;;;;;6023579;23;88575;-78
2023/04/13 08:19:39;;;;;;;14.75;2.20;;;9.70;77.20;;;;;;6024113;23;87686;-77
2023/04/13 08:22:04;;;;;;;28.15;3.03;;;9.80;78.00;;;;;;6022389;23;88055;-77
2023/04/13 08:24:30;;;;;;;11.85;1.80;;;9.80;78.50;;;;;;5998508;23;90544;-77
2023/04/13 08:26:59;;;;;;;13.82;2.25;;;9.90;79.10;;;;;;6022400;23;92241;-76
2023/04/13 08:29:25;;;;;;;20.60;2.47;;;10.00;78.40;;;;;;5998414;23;90903;-77
2023/04/13 08:31:51;;;;;;;16.15;2.35;;;10.00;78.80;;;;;;6023982;23;87250;-77
2023/04/13 08:34:17;;;;;;;10.13;2.45;;;10.00;78.00;;;;;;6067425;23;90569;-78
2023/04/13 08:36:46;;;;;;;13.88;2.70;;;10.20;77.90;;;;;;6084651;23;87550;-78
2023/04/13 08:39:12;;;;;;;17.90;2.42;;;10.50;75.00;;;;;;6088004;23;87933;-78
2023/04/13 08:41:39;;;;;;;16.88;2.38;;;10.60;73.80;;;;;;6089972;23;87253;-79
2023/04/13 08:44:06;;;;;;;18.50;2.63;;;10.80;74.60;;;;;;6113986;23;87545;-79
2023/04/13 08:46:33;;;;;;;18.30;2.25;;;11.00;75.30;;;;;;6097839;22;91912;-78
2023/04/13 08:49:00;;;;;;;12.93;1.90;;;11.00;72.30;;;;;;6202802;22;88306;-76
2023/04/13 08:51:28;;;;;;;11.30;2.05;;;11.00;73.50;;;;;;6206504;22;88450;-78
2023/04/13 08:53:57;;;;;;;15.23;2.60;;;11.00;74.60;;;;;;6140725;22;89551;-74
2023/04/13 08:56:23;;;;;;;11.40;2.50;;;11.20;73.50;;;;;;6115790;22;90859;-75
2023/04/13 08:58:55;;;;;;;12.15;3.05;;;11.30;70.20;;;;;;6117365;22;91615;-77
2023/04/13 09:01:22;;;;;;;10.20;2.00;;;11.30;70.60;;;;;;6142426;22;87866;-77
2023/04/13 09:03:53;;;;;;;21.25;3.30;;;11.10;69.40;;;;;;6139524;22;87252;-77
2023/04/13 09:06:32;;;;;;;13.43;2.10;;;11.20;70.90;;;;;;6114477;22;90337;-77
2023/04/13 09:08:59;;;;;;;19.67;2.72;;;11.20;72.00;;;;;;6114601;22;91684;-77
2023/04/13 09:11:24;;;;;;;13.15;2.20;;;11.40;71.40;;;;;;6129273;22;87384;-76
2023/04/13 09:13:51;;;;;;;14.60;2.13;;;11.50;68.50;;;;;;6115096;22;90031;-76
2023/04/13 09:16:21;;;;;;;13.48;2.30;;;11.40;69.40;;;;;;6140758;22;89746;-75
2023/04/13 09:18:54;;;;;;;18.08;2.60;;;11.30;68.80;;;;;;6145167;22;89363;-75
2023/04/13 09:21:21;;;;;;;14.80;2.28;;;11.20;72.10;;;;;;6084122;23;87639;-76
2023/04/13 09:23:56;;;;;;;19.33;2.63;;;11.10;70.90;;;;;;6083775;22;87787;-75
2023/04/13 09:26:21;;;;;;;18.30;2.50;;;11.00;71.80;;;;;;6121827;22;90036;-75
2023/04/13 09:28:49;;;;;;;11.57;2.67;;;10.90;70.30;;;;;;6124444;22;89768;-76
2023/04/13 09:31:15;;;;;;;15.85;2.92;;;10.90;72.20;;;;;;6147268;22;87394;-75
2023/04/13 09:33:45;;;;;;;14.27;2.80;;;10.90;72.60;;;;;;6121423;22;89554;-75
2023/04/13 09:36:14;;;;;;;15.13;2.05;;;10.90;71.10;;;;;;6120944;22;91156;-76
2023/04/13 09:38:43;;;;;;;21.65;2.60;;;10.80;69.80;;;;;;6120719;22;90542;-74
2023/04/13 09:41:09;;;;;;;17.80;2.60;;;10.90;72.40;;;;;;6121259;22;88420;-75
2023/04/13 09:43:38;;;;;;;15.80;3.03;;;11.00;71.90;;;;;;6152309;22;87545;-76
2023/04/13 09:46:11;;;;;;;14.50;2.40;;;11.10;70.50;;;;;;6132584;22;91307;-77
2023/04/13 09:48:37;;;;;;;14.85;2.13;;;11.20;73.50;;;;;;6156865;22;92632;-77
2023/04/13 09:51:07;;;;;;;19.50;2.65;;;11.30;69.40;;;;;;6157281;22;87008;-79
2023/04/13 09:53:45;;;;;;;18.33;2.85;;;11.40;69.90;;;;;;6130769;22;89706;-78
2023/04/13 09:56:10;;;;;;;14.18;2.58;;;11.50;69.20;;;;;;6158894;22;87727;-78
2023/04/13 09:58:42;;;;;;;15.00;2.17;;;11.60;69.30;;;;;;6157935;22;90766;-79
2023/04/13 10:01:09;;;;;;;18.90;2.58;;;11.80;69.30;;;;;;6218905;22;87045;-80
2023/04/13 10:03:36;;;;;;;10.82;2.70;;;12.00;68.30;;;;;;6217570;22;87001;-78
2023/04/13 10:06:06;;;;;;;14.10;2.17;;;12.30;66.30;;;;;;6192214;22;92561;-79
2023/04/13 10:08:32;;;;;;;15.30;1.95;;;12.60;66.40;;;;;;6218601;22;87292;-79
2023/04/13 10:11:00;;;;;;;11.60;1.88;;;12.70;64.60;;;;;;6191985;22;87752;-79
2023/04/13 10:13:33;;;;;;;13.77;2.35;;;12.70;63.10;;;;;;6218699;22;87598;-76
2023/04/13 10:16:20;;;;;;;16.23;2.17;;;12.70;64.00;;;;;;6220785;22;88569;-77
2023/04/13 10:19:05;;;;;;;15.55;2.85;;;12.80;62.20;;;;;;6178850;22;95580;-78
2023/04/13 10:21:35;;;;;;;8.88;1.73;;;12.90;62.30;;;;;;6073443;23;87063;-77
2023/04/13 10:24:11;;;;;;;14.57;1.73;;;13.00;62.20;;;;;;6074331;23;90311;-76
2023/04/13 10:26:37;;;;;;;10.93;2.42;;;13.20;61.60;;;;;;6074536;23;91216;-72
2023/04/13 10:29:04;;;;;;;13.85;1.85;;;13.30;61.20;;;;;;6072215;23;90672;-74
2023/04/13 10:31:50;;;;;;;15.85;2.40;;;13.20;63.00;;;;;;6066731;23;88800;-76
2023/04/13 10:34:26;;;;;;;11.57;2.15;;;13.20;61.10;;;;;;6071818;23;90681;-78
2023/04/13 10:36:54;;;;;;;16.10;2.75;;;13.20;61.10;;;;;;6069144;23;91023;-74
2023/04/13 10:39:24;;;;;;;16.40;2.40;;;13.50;62.20;;;;;;6094638;23;88345;-74
2023/04/13 10:42:05;;;;;;;8.80;1.75;;;13.70;59.60;;;;;;6092000;23;87127;-74
2023/04/13 10:45:00;;;;;;;8.85;1.52;;;13.80;61.60;;;;;;6088531;23;87911;-74
2023/04/13 10:47:35;;;;;;;14.15;2.03;;;13.90;59.80;;;;;;6008374;23;87842;-75
2023/04/13 10:50:01;;;;;;;9.57;1.75;;;14.20;60.20;;;;;;5985228;23;90835;-73
2023/04/13 10:52:27;;;;;;;10.85;1.58;;;14.30;57.40;;;;;;6003691;23;87295;-73
2023/04/13 10:54:53;;;;;;;12.13;1.70;;;14.20;59.00;;;;;;5980637;23;90308;-73
2023/04/13 10:57:19;;;;;;;12.25;1.95;;;14.30;58.70;;;;;;5973788;23;92371;-77
2023/04/13 10:59:48;;;;;;;13.38;2.33;;;14.10;61.20;;;;;;6060074;23;92751;-75
2023/04/13 11:02:16;;;;;;;9.00;1.30;;;13.90;58.60;;;;;;6088008;23;87305;-75
2023/04/13 11:04:46;;;;;;;5.35;1.15;;;13.50;58.30;;;;;;6094038;23;89503;-75
2023/04/13 11:07:22;;;;;;;12.77;1.77;;;13.40;56.80;;;;;;6097946;23;88817;-75
2023/04/13 11:09:51;;;;;;;8.20;1.70;;;13.40;58.10;;;;;;6097361;23;87782;-75
2023/04/13 11:12:18;;;;;;;8.88;1.48;;;13.70;58.50;;;;;;6059849;23;87405;-75
2023/04/13 11:14:47;;;;;;;7.88;1.55;;;13.80;56.20;;;;;;6006472;23;86762;-76
2023/04/13 11:17:18;;;;;;;6.35;1.20;;;13.80;57.10;;;;;;6011272;23;88491;-76
2023/04/13 11:19:48;;;;;;;11.15;1.60;;;13.70;55.80;;;;;;5988172;23;91192;-74
2023/04/13 11:22:17;;;;;;;13.85;1.88;;;13.50;54.70;;;;;;6006310;23;88148;-76
2023/04/13 11:24:43;;;;;;;13.73;2.63;;;13.30;57.40;;;;;;6059700;23;90677;-74
2023/04/13 11:27:16;;;;;;;13.75;2.40;;;13.50;56.90;;;;;;6094097;23;88836;-76
2023/04/13 11:29:42;;;;;;;8.60;1.88;;;13.80;56.10;;;;;;6087645;23;90954;-76
2023/04/13 11:32:18;;;;;;;8.30;1.80;;;14.10;55.00;;;;;;6058371;23;87702;-76
2023/04/13 11:34:43;;;;;;;8.70;1.30;;;14.30;55.30;;;;;;6083650;23;87281;-74
2023/04/13 11:37:10;;;;;;;15.52;2.15;;;14.50;52.70;;;;;;6095646;23;88805;-76
2023/04/13 11:39:38;;;;;;;11.55;1.63;;;14.50;53.20;;;;;;6072501;23;90788;-76
2023/04/13 11:42:05;;;;;;;12.80;1.77;;;14.60;54.60;;;;;;6096116;23;87094;-75
2023/04/13 11:44:33;;;;;;;8.80;1.98;;;14.20;55.20;;;;;;6036406;23;89848;-75
2023/04/13 11:47:03;;;;;;;7.85;2.42;;;13.90;56.80;;;;;;6097246;23;90426;-75
2023/04/13 11:49:30;;;;;;;9.05;1.80;;;13.60;54.90;;;;;;6088288;23;92044;-77
2023/04/13 11:51:58;;;;;;;8.60;1.63;;;13.40;55.30;;;;;;6110965;23;87129;-75
2023/04/13 11:54:24;;;;;;;10.27;1.85;;;13.20;54.30;;;;;;6084860;23;88318;-78
2023/04/13 11:56:50;;;;;;;10.82;1.92;;;13.70;56.60;;;;;;6110571;23;87585;-80
2023/04/13 11:59:15;;;;;;;9.82;1.50;;;14.30;53.30;;;;;;6104581;23;88154;-76
2023/04/13 12:01:48;;;;;;;9.45;1.70;;;14.40;51.50;;;;;;6078969;23;87762;-78
2023/04/13 12:04:14;;;;;;;6.97;1.63;;;14.40;51.80;;;;;;6056278;23;88720;-79
2023/04/13 12:06:43;;;;;;;13.05;1.77;;;14.50;51.60;;;;;;6081552;23;87860;-78
2023/04/13 12:09:09;;;;;;;11.68;2.05;;;14.80;52.00;;;;;;6056694;23;88720;-77
2023/04/13 12:11:39;;;;;;;6.75;1.10;;;14.70;51.90;;;;;;6055813;23;88440;-77
2023/04/13 12:14:05;;;;;;;10.75;2.72;;;14.50;52.90;;;;;;6030801;23;87924;-77
2023/04/13 12:16:33;;;;;;;7.60;1.30;;;14.70;50.20;;;;;;6081506;22;89531;-79
2023/04/13 12:19:09;;;;;;;10.15;1.48;;;14.90;48.70;;;;;;6111819;23;87660;-77
2023/04/13 12:21:35;;;;;;;5.90;1.02;;;14.90;48.10;;;;;;6111005;23;87616;-77
2023/04/13 12:24:01;;;;;;;7.50;1.50;;;15.10;49.50;;;;;;6085782;23;90572;-77
2023/04/13 12:26:39;;;;;;;7.68;1.35;;;15.30;48.60;;;;;;6085113;23;89946;-77
2023/04/13 12:29:07;;;;;;;7.68;1.23;;;15.40;47.70;;;;;;6111367;22;87204;-77
2023/04/13 12:31:36;;;;;;;9.40;1.40;;;15.50;48.80;;;;;;6112220;23;87218;-77
2023/04/13 12:34:03;;;;;;;8.35;1.40;;;15.60;47.50;;;;;;6142945;22;87511;-73
2023/04/13 12:36:30;;;;;;;11.68;1.60;;;15.50;48.30;;;;;;6140316;22;89074;-78
2023/04/13 12:38:59;;;;;;;3.65;0.95;;;15.70;47.20;;;;;;6116343;22;90510;-76
2023/04/13 12:41:26;;;;;;;9.98;1.40;;;15.80;47.60;;;;;;6115169;22;88181;-78
2023/04/13 12:43:52;;;;;;;4.22;1.30;;;16.00;46.40;;;;;;6172773;22;88584;-76
2023/04/13 12:46:19;;;;;;;9.75;1.27;;;16.20;47.10;;;;;;6157341;22;89780;-80
2023/04/13 12:48:49;;;;;;;9.73;1.20;;;16.00;44.00;;;;;;6151102;22;88654;-77
2023/04/13 12:51:17;;;;;;;11.13;1.52;;;16.20;45.70;;;;;;6139365;22;87844;-76
2023/04/13 12:53:43;;;;;;;9.18;1.55;;;16.20;43.60;;;;;;6089019;22;88672;-76